Main page
METAR-TAF:

METAR-TAF

Airports :

Hoedspruit, South Africa

Air Force Base Hoedspruit

latitude: 24-21-17S, longitude: 31-03-01E, elevation: 531 m

Current weather observation

The report was made 43 minutes ago, at 07:00 UTC
Calm wind
Temperature 0°C
Humidity 74%
Pressure

METAR: FAHS 230700Z AUTO 00000KT //// 00/M04 Q////

Time: 09:43 (07:43 UTC)

Forecast

The report was made 1 hour and 43 minutes ago, at 06:00 UTC
Forecast valid from 23 at 07 UTC to 23 at 18 UTC
Wind 3 kt from variable directions
Visibility 10 km or more
no clouds below 1500 m and no cumulonimbus
Becoming
from 23 at 08 UTC to 23 at 10 UTC
Wind 8 kt from the South/Southwest

TAF: FAHS 230600Z 2307/2318 VRB03KT CAVOK BECMG 2308/2310 21008KT TX33/2312Z TN16/2318Z

Weather observations and forecasts of more than 4000 airports (METAR and TAF reports).

The available stations are represented by yellow and red dots on the map.

Hover mouse over dot to see the name of the station.

Then click to see weather observations and forecasts.

To change the map : click on the green buttons with a black cross to zoom in, on the green button with a dash to zoom out, or on the green arrows for adjacent maps.


METAR-TAF: